Terminal Aerodrome Forecast
Issued by NWS Atlanta, GA

Home | Current Version | Previous Version | Text Only | Print | Product List | Glossary On
Versions: 1 2 3 4 5 6 7 8 9 10 11 12 13 14 15 16 17 18 19 20 21
000
FTUS42 KFFC 061422 AAA
TAFCSG
TAF AMD
KCSG 061422Z 0614/0712 04007KT P6SM BKN010
     FM061600 03007KT P6SM BKN025
     FM061900 01007KT P6SM SCT035
     FM070000 35004KT P6SM SKC=

USA.gov is the U.S. government's official web portal to all federal, state and local government web resources and services.